QUN weather

CLOSED Camp Page Airport (A-306)
Chun Chon City, Gang'weondo, South Korea

Public forecast

Using degrees Celsius for public forecast. Weather courtesy of forecast.io.

Closest aviation weather report (METAR) to Camp Page Airport (A-306)

Report is more than 6 hours old.

Closest report is Wonju/Hoengseong Air Base (K-38/K-46), 29.0 nm (53.8 km) SSE. Retrieved 2019/03/26 12:06 UTC (7 months ago):

RKNW 261206Z 11001KT 9999 SKC 07/M00 A3003

Closest aviation forecast (TAF) to Camp Page Airport (A-306)

Closest forecast is Seoul Air Base (K-16), 39.0 nm (72.3 km) SW. Retrieved 2019/10/19 12:42 UTC (2 hours ago):

TAF RKSM 191100Z 1912/2018 26006KT 8000 BR SCT040 TN10/1921Z TX21/2006Z